Flight Track Log - Related Links

Times and Time Zones

All times are in EST time to prevent confusion due to time zone crossing. See the OPT332 flight status page for this flight to view local times or setup timezone preferences in your user account.

Time Position Orientation Groundspeed Altitude Reporting Facility
EST Latitude Longitude Course Direction KTS MPH feet Rate Location/Type
Thu 11:11:46 AM 40.8461 -74.0719 30° Northeast 144 166 900  Level FlightAware ADS-B
Thu 11:12:01 AM 40.8391 -74.0821 228° Southwest 156 180 1,400 1,615 Climbing FlightAware ADS-B
Thu 11:12:12 AM 40.8334 -74.0895 224° Southwest 163 188 1,600 857 Climbing FlightAware ADS-B
Thu 11:12:15 AM 40.8315 -74.0921 226° Southwest 166 191 1,600  Level FlightAware ADS-B
Thu 11:12:19 AM 40.8296 -74.0952 231° Southwest 167 192 1,600  Level FlightAware ADS-B
Thu 11:12:23 AM 40.8281 -74.0986 240° Southwest 169 194 1,600  Level FlightAware ADS-B
Thu 11:12:28 AM 40.8268 -74.1031 249° West 171 197 1,600  Level FlightAware ADS-B
Thu 11:12:31 AM 40.8263 -74.1062 258° West 171 197 1,600  Level FlightAware ADS-B
Thu 11:12:35 AM 40.8260 -74.1102 264° West 173 199 1,600 2,000 Level FlightAware ADS-B
Thu 11:13:28 AM 40.8218 -74.1662 264° West 185 213 3,500 2,339 Climbing FlightAware ADS-B
Thu 11:13:34 AM 40.8188 -74.1710 230° Southwest 188 216 3,900 4,714 Climbing FlightAware ADS-B
Thu 11:13:42 AM 40.8136 -74.1769 221° Southwest 189 217 4,600 4,909 Climbing FlightAware ADS-B
Thu 11:13:45 AM 40.8108 -74.1791 211° Southwest 195 224 4,800 3,429 Climbing FlightAware ADS-B
Thu 11:13:49 AM 40.8078 -74.1809 204° Southwest 201 231 5,000 2,286 Climbing FlightAware ADS-B
Thu 11:14:06 AM 40.7912 -74.1884 199° South 236 272 5,600 1,929 Climbing FlightAware ADS-B
Thu 11:14:17 AM 40.7785 -74.1935 197° South 251 289 5,900 1,846 Climbing FlightAware ADS-B
Thu 11:14:32 AM 40.7619 -74.1996 196° South 261 300 6,400 3,000 Climbing FlightAware ADS-B
Thu 11:14:47 AM 40.7441 -74.2058 195° South 261 300 7,400 5,091 Climbing FlightAware ADS-B
Thu 11:15:05 AM 40.7236 -74.2129 195° South 249 287 9,200 3,182 Climbing FlightAware ADS-B
Thu 11:15:53 AM 40.6706 -74.2317 195° South 245 282 10,900 1,443 Climbing FlightAware ADS-B
Thu 11:16:24 AM 40.6376 -74.2436 195° South 245 282 11,100 381 Climbing FlightAware ADS-B
Thu 11:16:56 AM 40.5998 -74.2488 186° South 273 314 11,300 500 Climbing FlightAware ADS-B
Thu 11:17:00 AM 40.5955 -74.2460 154° Southeast 282 325 11,400 2,143 Climbing FlightAware ADS-B
Thu 11:17:10 AM 40.5848 -74.2347 141° Southeast 287 330 11,800 2,000 Climbing FlightAware ADS-B (KWWD)
Thu 11:17:18 AM 40.5773 -74.2249 135° Southeast 301 346 12,000 1,800 Climbing FlightAware ADS-B
Thu 11:17:20 AM 40.5751 -74.2220 135° Southeast 301 346 12,100 3,000 Climbing FlightAware ADS-B (KWWD)
Thu 11:17:48 AM 40.5496 -74.1848 132° Southeast 285 328 13,500 2,000 Climbing FlightAware ADS-B
Thu 11:18:20 AM 40.5219 -74.1443 132° Southeast 288 331 14,100 500 Climbing FlightAware ADS-B (KWWD)
Thu 11:19:00 AM 40.4858 -74.0927 133° Southeast 287 330 14,100  Level FlightAware ADS-B (KWWD)
Thu 11:19:21 AM 40.4655 -74.0695 139° Southeast 261 300 14,100 1,821 Level FlightAware ADS-B (KWWD)
Thu 11:19:56 AM 40.4296 -74.0463 154° Southeast 239 275 15,800 1,800 Climbing FlightAware ADS-B (KWWD)
Thu 11:21:01 AM 40.3565 -73.9995 154° Southeast 272 313 17,100 1,054 Climbing FlightAware ADS-B (KWWD)
Thu 11:21:10 AM 40.3468 -73.9961 165° South 265 305 17,100  Level FlightAware ADS-B (KWWD)
Thu 11:21:26 AM 40.3282 -73.9985 186° South 239 275 17,100  Level FlightAware ADS-B (KWWD)
Thu 11:21:52 AM 40.3025 -74.0188 211° Southwest 249 287 17,100  Level FlightAware ADS-B (KWWD)
Thu 11:22:30 AM 40.2630 -74.0494 211° Southwest 264 304 17,100  Level FlightAware ADS-B (KWWD)
Thu 11:23:00 AM 40.2306 -74.0743 210° Southwest 269 310 17,100  Level FlightAware ADS-B (KWWD)
Thu 11:23:32 AM 40.1953 -74.1019 211° Southwest 281 323 17,100 514 Level FlightAware ADS-B (KWWD)
Thu 11:24:10 AM 40.1530 -74.1355 211° Southwest 245 282 17,700 1,974 Climbing FlightAware ADS-B (KWWD)
Thu 11:24:48 AM 40.1210 -74.1605 211° Southwest 209 241 19,600 2,435 Climbing FlightAware ADS-B (KWWD)
Thu 11:25:19 AM 40.0940 -74.1823 212° Southwest 227 261 20,500 1,594 Climbing FlightAware ADS-B (KWWD)
Thu 11:25:52 AM 40.0627 -74.2074 212° Southwest 247 284 21,300 1,333 Climbing FlightAware ADS-B (KWWD)
Thu 11:26:31 AM 40.0239 -74.2380 211° Southwest 246 283 22,100 1,275 Climbing FlightAware ADS-B (KWWD)
Thu 11:27:12 AM 39.9849 -74.2723 214° Southwest 246 283 23,000 1,135 Climbing FlightAware ADS-B (KWWD)
Thu 11:27:45 AM 39.9538 -74.3021 216° Southwest 246 283 23,500 957 Climbing FlightAware ADS-B (KWWD)
Thu 11:28:21 AM 39.9201 -74.3343 216° Southwest 266 306 24,100 923 Climbing FlightAware ADS-B (KWWD)
Thu 11:29:03 AM 39.8762 -74.3760 216° Southwest 281 323 24,700 1,037 Climbing FlightAware ADS-B (KWWD)
Thu 11:29:42 AM 39.8349 -74.4152 216° Southwest 279 321 25,500 1,371 Climbing FlightAware ADS-B (KWWD)
Thu 11:30:13 AM 39.8033 -74.4501 220° Southwest 274 315 26,300 1,672 Climbing FlightAware ADS-B (KWWD)
Thu 11:30:43 AM 39.7772 -74.4854 226° Southwest 278 320 27,200 1,886 Climbing FlightAware ADS-B (KWWD)
Thu 11:31:23 AM 39.7417 -74.5322 225° Southwest 265 305 28,500 1,886 Climbing FlightAware ADS-B (KWWD)
Thu 11:31:53 AM 39.7150 -74.5674 225° Southwest 264 304 29,400 1,304 Climbing FlightAware ADS-B (KWWD)
Thu 11:32:32 AM 39.6799 -74.6141 226° Southwest 282 325 30,000 692 Climbing FlightAware ADS-B (KWWD)
Thu 11:33:11 AM 39.6429 -74.6631 226° Southwest 301 346 30,300 514 Climbing FlightAware ADS-B (KWWD)
Thu 11:33:42 AM 39.6116 -74.7043 225° Southwest 311 358 30,600 571 Climbing FlightAware ADS-B (KWWD)
Thu 11:34:14 AM 39.5780 -74.7485 225° Southwest 327 376 30,900 343 Climbing FlightAware ADS-B (KWWD)
Thu 11:34:52 AM 39.5366 -74.8030 225° Southwest 330 380 31,000 87 Climbing FlightAware ADS-B (KWWD)
Thu 11:35:23 AM 39.5028 -74.8474 225° Southwest 332 382 31,000  Level FlightAware ADS-B (KWWD)
Thu 11:36:02 AM 39.4600 -74.9034 225° Southwest 340 391 31,000 85 Level FlightAware ADS-B (KWWD)
Thu 11:36:34 AM 39.4249 -74.9490 225° Southwest 332 382 31,100 592 Climbing FlightAware ADS-B (KWWD)
Thu 11:37:13 AM 39.3823 -75.0047 225° Southwest 328 377 31,700 1,029 Climbing FlightAware ADS-B (KWWD)
Thu 11:37:44 AM 39.3485 -75.0488 225° Southwest 325 374 32,300 1,029 Climbing FlightAware ADS-B (KWWD)
Thu 11:38:23 AM 39.3055 -75.1029 224° Southwest 330 380 32,900 1,102 Climbing FlightAware ADS-B (KWWD)
Thu 11:39:22 AM 39.2368 -75.1783 220° Southwest 323 372 34,100 1,348 Climbing FlightAware ADS-B (KWWD)
Thu 11:39:52 AM 39.2025 -75.2146 219° Southwest 313 360 34,900 1,483 Climbing FlightAware ADS-B (KWWD)
Thu 11:40:51 AM 39.1386 -75.2827 220° Southwest 296 341 36,300 1,459 Climbing FlightAware ADS-B (KWWD)
Thu 11:41:06 AM 39.1353 -75.2862 220° Southwest 304 350 36,700 1,000 Climbing FlightAware ADS-B (EGAA / BFS)
Thu 11:41:45 AM 39.0746 -75.3357 212° Southwest 329 379 37,200 892 Climbing FlightAware ADS-B (KWWD)
Thu 11:42:20 AM 39.0205 -75.3502 192° South 326 375 37,800 971 Climbing FlightAware ADS-B (KWWD)
Thu 11:42:53 AM 38.9706 -75.3626 191° South 327 376 38,300 952 Climbing FlightAware ADS-B (KWWD)
Thu 11:43:23 AM 38.9255 -75.3736 191° South 328 377 38,800 1,031 Climbing FlightAware ADS-B (KWWD)
Thu 11:43:57 AM 38.8748 -75.3857 191° South 337 388 39,400 882 Climbing FlightAware ADS-B
Thu 11:44:31 AM 38.8200 -75.3987 190° South 331 381 39,800 537 Climbing FlightAware ADS-B (KWWD)
Thu 11:45:04 AM 38.7684 -75.4110 191° South 347 399 40,000 176 Climbing FlightAware ADS-B (EGAA / BFS)
Thu 11:45:39 AM 38.7144 -75.4240 191° South 354 407 40,000  Level FlightAware ADS-B (EGAA / BFS)
Thu 11:46:14 AM 38.6566 -75.4375 190° South 357 411 40,000  Level FlightAware ADS-B (KWWD)
Thu 11:46:44 AM 38.6070 -75.4492 190° South 359 413 40,000  Level FlightAware ADS-B (KWWD)
Thu 11:47:15 AM 38.5568 -75.4610 190° South 361 415 40,000  Level FlightAware ADS-B (KWWD)
Thu 11:47:45 AM 38.5076 -75.4726 190° South 363 418 40,000  Level FlightAware ADS-B (KWWD)
Thu 11:48:24 AM 38.4463 -75.4870 190° South 365 420 40,000  Level FlightAware ADS-B (EGAA / BFS)
Thu 11:48:56 AM 38.3888 -75.5004 190° South 358 412 40,000  Level FlightAware ADS-B (KWWD)
Thu 11:49:16 AM 38.3607 -75.5070 190° South 367 422 40,000  Level FlightAware ADS-B (EGAA / BFS)
Thu 11:49:23 AM 38.3438 -75.5115 192° South 366 421 40,000  Level FlightAware ADS-B (EGAA / BFS)
Thu 11:49:31 AM 38.3310 -75.5163 196° South 366 421 40,000  Level FlightAware ADS-B (EGAA / BFS)
Thu 11:50:06 AM 38.2769 -75.5405 199° South 359 413 40,000 81 Level FlightAware ADS-B (KWWD)
Thu 11:50:45 AM 38.2156 -75.5668 199° South 359 413 40,100 343 Climbing FlightAware ADS-B (KWWD)
Thu 11:51:16 AM 38.1683 -75.5902 201° Southwest 350 403 40,400 600 Climbing FlightAware ADS-B (KWWD)
Thu 11:51:55 AM 38.1134 -75.6314 211° Southwest 349 402 40,800 632 Climbing FlightAware ADS-B (EGAA / BFS)
Thu 11:52:32 AM 38.0627 -75.6682 210° Southwest 350 403 41,200 553 Climbing FlightAware ADS-B (EGAA / BFS)
Thu 11:53:11 AM 38.0067 -75.7088 210° Southwest 350 403 41,500 522 Climbing FlightAware ADS-B (EGAA / BFS)
Thu 11:53:41 AM 37.9689 -75.7364 210° Southwest 349 402 41,800 590 Climbing FlightAware ADS-B (EGAA / BFS)
Thu 11:54:12 AM 37.9210 -75.7714 210° Southwest 342 394 42,100 769 Climbing FlightAware ADS-B (KWWD)
Thu 11:54:20 AM 37.9287 -75.7658 30° Northeast 349 402 42,300 632 Climbing FlightAware ADS-B (EGAA / BFS)
Thu 11:54:50 AM 37.8682 -75.8098 210° Southwest 349 402 42,500 469 Climbing FlightAware ADS-B (EGAA / BFS)
Thu 11:55:24 AM 37.8201 -75.8447 210° Southwest 342 394 42,800 508 Climbing FlightAware ADS-B (KWWD)
Thu 11:55:49 AM 37.7846 -75.8704 210° Southwest 342 394 43,000 600 Climbing FlightAware ADS-B (KWWD)
Thu 11:56:04 AM 37.7637 -75.8856 210° Southwest 342 394 43,200 649 Climbing FlightAware ADS-B (KWWD)
Thu 11:56:26 AM 37.7363 -75.9054 210° Southwest 348 400 43,400 526 Climbing FlightAware ADS-B (EGAA / BFS)
Thu 11:57:01 AM 37.6841 -75.9432 210° Southwest 340 391 43,700 600 Climbing FlightAware ADS-B (KWWD)
Thu 11:57:36 AM 37.6355 -75.9783 210° Southwest 337 388 44,100 574 Climbing FlightAware ADS-B (KWWD)
Thu 11:58:35 AM 37.5562 -76.0355 210° Southwest 334 384 44,600 365 Climbing FlightAware ADS-B (KWWD)
Thu 12:00:04 PM 37.4333 -76.1239 210° Southwest 337 388 45,000 186 Climbing FlightAware ADS-B (KWWD)
Thu 12:00:44 PM 37.3785 -76.1632 210° Southwest 338 389 45,000  Level FlightAware ADS-B (KWWD)
Thu 12:01:21 PM 37.3259 -76.2009 210° Southwest 340 391 45,000  Level FlightAware ADS-B (KWWD)
Thu 12:02:16 PM 37.2503 -76.2549 210° Southwest 341 392 45,000  Level FlightAware ADS-B (KWWD)
Thu 12:03:39 PM 37.1364 -76.3317 210° Southwest 355 409 45,000  Level Washington Center
Thu 12:04:39 PM 37.0525 -76.3908 209° Southwest 355 409 45,000  Level Washington Center
Thu 12:05:40 PM 36.9667 -76.4522 210° Southwest 355 409 45,000  Level Washington Center
Thu 12:06:40 PM 36.8828 -76.5136 210° Southwest 355 409 45,000  Level Washington Center
Thu 12:07:38 PM 36.7947 -76.5750 209° Southwest 355 409 45,000  Level Washington Center
Thu 12:08:38 PM 36.7106 -76.6361 210° Southwest 355 409 45,000  Level Washington Center
Thu 12:09:38 PM 36.6244 -76.6997 211° Southwest 360 414 45,000  Level Washington Center
Thu 12:10:38 PM 36.5383 -76.7606 210° Southwest 360 414 45,000  Level Washington Center
Thu 12:11:39 PM 36.4503 -76.8186 208° Southwest 355 409 45,000  Level Washington Center
Thu 12:12:40 PM 36.3725 -76.8742 210° Southwest 355 409 45,000  Level Washington Center
Thu 12:13:40 PM 36.2842 -76.9344 209° Southwest 360 414 45,000  Level Washington Center
Thu 12:14:38 PM 36.1981 -76.9947 209° Southwest 360 414 45,000  Level Washington Center
Thu 12:15:38 PM 36.1097 -77.0522 208° Southwest 355 409 45,000  Level Washington Center
Thu 12:21:19 PM 35.5903 -77.4100 208° Southwest 368 423 45,000  Level FlightAware ADS-B
Thu 12:22:35 PM 35.5870 -77.4122 210° Southwest 369 425 45,000  Level FlightAware ADS-B
Thu 12:23:29 PM 35.3968 -77.5410 209° Southwest 369 425 45,000  Level FlightAware ADS-B
Thu 12:24:07 PM 35.3443 -77.5860 215° Southwest 369 425 45,000  Level FlightAware ADS-B
Thu 12:24:17 PM 35.3309 -77.6005 221° Southwest 362 417 45,000  Level FlightAware ADS-B
Thu 12:24:57 PM 35.2814 -77.6520 220° Southwest 363 418 45,000  Level FlightAware ADS-B
Thu 12:25:27 PM 35.2430 -77.6916 220° Southwest 362 417 45,000  Level FlightAware ADS-B
Thu 12:25:59 PM 35.2013 -77.7348 220° Southwest 362 417 45,000  Level FlightAware ADS-B
Thu 12:26:37 PM 35.1524 -77.7854 220° Southwest 363 418 45,000 -385 Level FlightAware ADS-B
Thu 12:27:17 PM 35.1014 -77.8381 220° Southwest 367 422 44,500 -867 Descending FlightAware ADS-B
Thu 12:28:07 PM 35.0349 -77.9067 220° Southwest 368 423 43,700 -938 Descending FlightAware ADS-B
Thu 12:28:53 PM 34.9752 -77.9682 220° Southwest 370 426 43,000 -512 Descending FlightAware ADS-B
Thu 12:29:29 PM 34.9288 -78.0158 220° Southwest 369 425 43,000  Level FlightAware ADS-B
Thu 12:30:39 PM 34.8380 -78.1090 220° Southwest 368 423 43,000  Level FlightAware ADS-B
Thu 12:31:47 PM 34.7485 -78.2003 220° Southwest 368 423 43,000  Level FlightAware ADS-B
Thu 12:32:57 PM 34.6569 -78.2937 220° Southwest 370 426 43,000  Level FlightAware ADS-B
Thu 12:33:27 PM 34.6168 -78.3345 220° Southwest 370 426 43,000  Level FlightAware ADS-B
Thu 12:34:42 PM 34.5272 -78.4319 220° Southwest 366 421 43,000  Level Jacksonville Center
Thu 12:35:42 PM 34.4467 -78.5142 220° Southwest 375 432 43,000  Level Jacksonville Center
Thu 12:36:42 PM 34.3681 -78.5936 220° Southwest 380 437 43,000  Level Jacksonville Center
Thu 12:37:42 PM 34.2875 -78.6731 219° Southwest 380 437 43,000  Level Jacksonville Center
Thu 12:38:42 PM 34.2086 -78.7522 220° Southwest 380 437 43,000  Level Jacksonville Center
Thu 12:39:42 PM 34.1278 -78.8336 220° Southwest 380 437 43,000  Level Jacksonville Center
Thu 12:40:42 PM 34.0469 -78.9128 219° Southwest 380 437 43,000  Level Jacksonville Center
Thu 12:41:42 PM 33.9681 -78.9914 220° Southwest 380 437 43,000  Level Jacksonville Center
Thu 12:42:42 PM 33.8869 -79.0700 219° Southwest 380 437 43,000  Level Jacksonville Center
Thu 12:43:42 PM 33.8058 -79.1511 220° Southwest 385 443 43,000  Level Jacksonville Center
Thu 12:44:42 PM 33.7228 -79.2294 218° Southwest 385 443 43,000  Level Jacksonville Center
Thu 12:45:42 PM 33.6536 -79.2972 219° Southwest 377 434 43,000  Level Jacksonville Center
Thu 12:46:42 PM 33.5725 -79.3778 220° Southwest 377 434 43,000  Level Jacksonville Center
Thu 12:47:42 PM 33.4914 -79.4583 220° Southwest 377 434 43,000  Level Jacksonville Center
Thu 12:48:42 PM 33.4100 -79.5386 219° Southwest 382 440 43,000  Level Jacksonville Center
Thu 12:49:42 PM 33.3286 -79.6161 219° Southwest 382 440 43,000  Level Jacksonville Center
Thu 12:50:42 PM 33.2450 -79.6986 220° Southwest 387 445 43,000  Level Jacksonville Center
Thu 12:51:42 PM 33.1614 -79.7761 218° Southwest 387 445 43,000  Level Jacksonville Center
Thu 12:52:42 PM 33.0800 -79.8558 219° Southwest 387 445 43,000  Level Jacksonville Center
Thu 12:53:42 PM 32.9942 -79.9356 218° Southwest 387 445 43,000  Level Jacksonville Center
Thu 12:54:42 PM 32.9103 -80.0150 218° Southwest 387 445 43,000  Level Jacksonville Center
Thu 12:55:42 PM 32.8203 -80.0894 215° Southwest 392 451 43,000  Level Jacksonville Center
Thu 12:56:42 PM 32.7197 -80.1667 213° Southwest 397 457 43,000  Level Jacksonville Center
Thu 12:57:42 PM 32.6272 -80.2336 211° Southwest 397 457 43,000  Level Jacksonville Center
Thu 12:58:42 PM 32.5325 -80.3053 213° Southwest 397 457 43,000  Level Jacksonville Center
Thu 12:59:42 PM 32.4419 -80.3719 212° Southwest 397 457 43,000  Level Jacksonville Center
Thu 01:00:42 PM 32.3494 -80.4333 209° Southwest 397 457 43,000  Level Jacksonville Center
Thu 01:01:42 PM 32.2417 -80.4781 199° South 394 453 43,000  Level Jacksonville Center
Thu 01:02:42 PM 32.1381 -80.5250 201° Southwest 401 461 43,000  Level Jacksonville Center
Thu 01:03:42 PM 32.0344 -80.5669 199° South 406 467 43,000  Level Jacksonville Center
Thu 01:04:41 PM 31.9311 -80.6136 201° Southwest 406 467 43,000  Level Jacksonville Center
Thu 01:05:42 PM 31.8233 -80.6578 199° South 406 467 43,000  Level Jacksonville Center
Thu 01:06:42 PM 31.7175 -80.7019 200° South 406 467 43,000  Level Jacksonville Center
Thu 01:07:42 PM 31.6242 -80.7431 201° Southwest 406 467 43,000  Level Jacksonville Center
Thu 01:08:42 PM 31.5081 -80.7897 199° South 406 467 43,000  Level Jacksonville Center
Thu 01:09:42 PM 31.4025 -80.8358 200° South 406 467 43,000  Level Jacksonville Center
Thu 01:10:42 PM 31.2944 -80.8819 200° South 406 467 43,000  Level Jacksonville Center
Thu 01:11:42 PM 31.1889 -80.9256 199° South 406 467 43,000  Level Jacksonville Center
Thu 01:12:42 PM 31.0850 -80.9714 201° Southwest 406 467 43,000  Level Jacksonville Center
Thu 01:13:42 PM 30.9772 -81.0147 199° South 406 467 43,000  Level Jacksonville Center
Thu 01:14:41 PM 30.8733 -81.0578 200° South 406 467 43,000  Level Jacksonville Center
Thu 01:15:42 PM 30.7656 -81.0986 198° South 406 467 43,000  Level Jacksonville Center
Thu 01:16:42 PM 30.6575 -81.1417 199° South 406 467 43,000  Level Jacksonville Center
Thu 01:17:42 PM 30.5425 -81.1269 174° South 401 461 43,000  Level Jacksonville Center
Thu 01:18:42 PM 30.4272 -81.0978 168° South 408 470 43,000 -500 Level Jacksonville Center
Thu 01:19:42 PM 30.3119 -81.0711 169° South 420 483 42,000 -1,500 Descending Jacksonville Center
Thu 01:20:42 PM 30.1947 -81.0397 167° South 430 495 40,000 -2,000 Descending Jacksonville Center
Thu 01:21:42 PM 30.0794 -81.0131 169° South 430 495 38,000 -2,000 Descending Jacksonville Center
Thu 01:22:42 PM 29.9600 -80.9842 168° South 430 495 36,000 -2,000 Descending Jacksonville Center
Thu 01:23:42 PM 29.8342 -80.9533 168° South 443 510 34,000 -1,500 Descending Jacksonville Center
Thu 01:24:42 PM 29.7106 -80.9244 169° South 448 516 33,000 -500 Descending Jacksonville Center
Thu 01:25:42 PM 29.6122 -80.9003 168° South 448 516 33,000 -1,779 Level Jacksonville Center
Thu 01:30:53 PM 28.9733 -80.7369 168° South 382 440 22,000 -1,503 Descending FlightAware ADS-B (EPWA / WAW)
Thu 01:33:33 PM 28.7031 -80.6857 171° South 371 427 21,200 -568 Descending FlightAware ADS-B
Thu 01:34:03 PM 28.6644 -80.6853 180° South 377 434 20,200 -1,867 Descending FlightAware ADS-B
Thu 01:35:03 PM 28.5522 -80.6897 180° South 368 423 18,400 -1,850 Descending Miami Center
Thu 01:36:03 PM 28.4478 -80.6908 181° South 373 429 16,500 -1,850 Descending Miami Center
Thu 01:37:03 PM 28.3581 -80.6925 181° South 373 429 14,700 -2,050 Descending Miami Center
Thu 01:38:03 PM 28.2431 -80.6958 181° South 368 423 12,400 -2,100 Descending Miami Center
Thu 01:39:03 PM 28.1450 -80.6972 181° South 362 417 10,500 -1,950 Descending Miami Center
Thu 01:40:03 PM 28.0594 -80.6989 181° South 333 383 8,500 -1,950 Descending Miami Center
Thu 01:41:03 PM 27.9867 -80.6869 172° South 305 351 6,600 -1,300 Descending Miami Center
Thu 01:42:03 PM 27.8994 -80.6747 173° South 294 338 5,900 -800 Descending Miami Center
Thu 01:43:03 PM 27.8347 -80.6678 175° South 257 296 5,000 -1,300 Descending Miami Center
Thu 01:44:03 PM 27.7767 -80.6589 172° South 222 255 3,300 -1,000 Descending Miami Center
Thu 01:45:03 PM 27.7311 -80.6386 158° South 203 234 3,000 -150 Descending Miami Center
Thu 01:46:03 PM 27.7094 -80.5886 116° Southeast 175 201 3,000 -400 Level Miami Center
Thu 01:47:03 PM 27.6922 -80.5342 110° East 169 194 2,200 -900 Descending Miami Center
Thu 01:48:03 PM 27.6786 -80.4939 111° Southeast 145 167 1,200 -800 Descending Miami Center
Thu 01:49:03 PM 27.6669 -80.4583 110° East 125 144 600 -450 Descending Miami Center
Thu 01:50:03 PM 27.6572 -80.4275 110° East 120 138 300 -300 Descending Miami Center

Login

Don't have an account? Register now (free) for customized features, flight alerts, and more!